New Ulm, Minnesota
Current Conditions -  °F | °C
As of 4:54 AM on Sunday 23 Nov 2014 (Local Time) from KULM Reporting Station
Haze Haze  
Wind Chill: 44°   Ceiling: Unl
Heat Index: 46°   Visibility: 2.5mi
Dew Point: 46°   Wind: 6mph
Humidity: 100%   Direction: 170°S
Pressure: 29.41"   Gusts: NA
Location:  44.31°N, 94.46°W
Report Text: KULM 231054Z AUTO 17005KT 2 1/2SM BR CLR 08/08 A2941 RMK AO2
Loading
Personal Weather Stations






























Interactive Weather Map New forecast layout! Learn more

10-Day Weather Forecast

Advertisements
Track Severe Weather on mobile